Time;durP1;ratioP1;P1;durP2;ratioP2;P2;SDS_P1;SDS_P2;PMS_P1;PMS_P2;Temp;Humidity;BMP_temperature;BMP_pressure;BME280_temperature;BME280_humidity;BME280_pressure;Samples;Min_cycle;Max_cycle;Signal;HPM_P1;HPM_P2
2023/12/05 00:02:12;;;;;;;;;0.40;0.40;;;;;4.36;78.69;98289.97;5037033;28;8868;-93
2023/12/05 00:04:40;;;;;;;;;1.00;0.80;;;;;4.37;78.77;98286.38;5036818;28;8915;-92
2023/12/05 00:07:08;;;;;;;;;0.80;0.80;;;;;4.40;78.74;98275.63;5036248;28;8918;-92
2023/12/05 00:09:36;;;;;;;;;1.00;1.00;;;;;4.38;78.61;98291.53;5035393;28;8856;-92
2023/12/05 00:12:04;;;;;;;;;1.80;1.80;;;;;4.40;78.32;98275.63;5036086;28;8852;-93
2023/12/05 00:14:32;;;;;;;;;0.00;0.00;;;;;4.41;78.24;98280.72;5036073;28;8966;-92
2023/12/05 00:17:00;;;;;;;;;1.00;1.00;;;;;4.41;78.88;98278.09;5036220;28;8828;-92
2023/12/05 00:19:27;;;;;;;;;0.40;0.40;;;;;4.41;78.47;98272.00;5036153;28;8848;-92
2023/12/05 00:21:55;;;;;;;;;0.40;0.20;;;;;4.40;78.81;98271.16;5036248;28;8841;-91
2023/12/05 00:24:23;;;;;;;;;2.20;2.20;;;;;4.41;79.00;98274.66;5036250;28;8860;-93
2023/12/05 00:26:51;;;;;;;;;0.40;0.40;;;;;4.42;79.03;98263.97;5036549;28;8844;-92
2023/12/05 00:29:19;;;;;;;;;1.00;1.00;;;;;4.43;78.62;98259.53;5036768;28;8848;-92
2023/12/05 00:31:47;;;;;;;;;1.00;1.00;;;;;4.44;79.21;98253.31;5036781;28;8836;-92
2023/12/05 00:34:14;;;;;;;;;0.00;0.00;;;;;4.41;78.83;98262.28;5037266;28;8844;-92
2023/12/05 00:36:42;;;;;;;;;1.00;1.00;;;;;4.40;79.24;98260.63;5036701;28;8847;-91
2023/12/05 00:39:10;;;;;;;;;3.00;3.00;;;;;4.40;78.96;98254.53;5036557;28;9520;-92
2023/12/05 00:41:38;;;;;;;;;2.20;1.00;;;;;4.40;79.58;98254.53;5036415;28;9671;-92
2023/12/05 00:44:05;;;;;;;;;1.00;1.00;;;;;4.39;79.02;98260.72;5036139;28;8856;-92
2023/12/05 00:46:33;;;;;;;;;1.00;0.80;;;;;4.39;79.09;98252.84;5036013;28;8829;-92
2023/12/05 00:49:01;;;;;;;;;1.00;1.00;;;;;4.37;79.13;98257.41;5036404;28;8871;-92
2023/12/05 00:51:30;;;;;;;;;1.00;1.00;;;;;4.38;79.16;98259.06;5036137;28;8841;-92
2023/12/05 00:53:58;;;;;;;;;1.00;1.00;;;;;4.40;79.57;98259.81;5034943;28;8864;-92
2023/12/05 00:56:25;;;;;;;;;1.00;1.00;;;;;4.41;79.35;98258.84;5035555;28;8856;-92
2023/12/05 00:58:53;;;;;;;;;0.00;0.00;;;;;4.41;79.55;98256.19;5035462;28;8892;-92
2023/12/05 01:01:21;;;;;;;;;1.00;1.00;;;;;4.39;79.43;98250.19;5036031;28;9506;-92
2023/12/05 01:03:51;;;;;;;;;1.00;1.00;;;;;4.40;79.93;98254.53;5036196;28;8860;-92
2023/12/05 01:06:18;;;;;;;;;2.20;1.40;;;;;4.40;79.58;98260.63;5036198;28;8867;-92
2023/12/05 01:08:46;;;;;;;;;1.00;1.00;;;;;4.42;79.29;98258.69;5035738;28;8840;-92
2023/12/05 01:11:14;;;;;;;;;0.00;0.00;;;;;4.46;79.16;98259.28;5036460;28;8841;-92
2023/12/05 01:13:43;;;;;;;;;2.20;1.00;;;;;4.48;79.17;98257.38;5036728;28;8871;-92
2023/12/05 01:16:10;;;;;;;;;3.00;1.40;;;;;4.49;79.27;98251.97;5035476;28;8868;-92
2023/12/05 01:18:38;;;;;;;;;1.80;1.80;;;;;4.50;79.24;98250.16;5035818;28;8865;-92
2023/12/05 01:21:06;;;;;;;;;2.60;1.40;;;;;4.51;79.25;98247.41;5036132;28;8840;-91
2023/12/05 01:23:33;;;;;;;;;1.00;1.00;;;;;4.50;79.60;98252.81;5036104;28;8866;-91
2023/12/05 01:26:01;;;;;;;;;1.00;1.00;;;;;4.50;79.67;98258.91;5035967;28;8852;-92
2023/12/05 01:28:29;;;;;;;;;1.00;1.00;;;;;4.52;79.26;98254.34;5035923;28;9530;-92
2023/12/05 01:30:56;;;;;;;;;0.60;0.60;;;;;4.53;79.65;98248.13;5035786;28;8836;-91
2023/12/05 01:33:24;;;;;;;;;0.60;0.60;;;;;4.55;79.67;98247.97;5036190;28;8844;-92
2023/12/05 01:35:52;;;;;;;;;1.00;1.00;;;;;4.54;79.01;98241.03;5035774;28;8963;-92
2023/12/05 01:38:20;;;;;;;;;2.60;2.60;;;;;4.52;79.19;98243.81;5035842;28;8840;-92
2023/12/05 01:40:47;;;;;;;;;1.00;1.00;;;;;4.52;79.05;98245.59;5035837;28;9543;-91
2023/12/05 01:43:15;;;;;;;;;3.00;2.20;;;;;4.52;79.15;98249.09;5035847;28;8856;-92
2023/12/05 01:45:42;;;;;;;;;1.00;1.00;;;;;4.54;79.23;98243.66;5035295;28;8863;-92
2023/12/05 01:48:10;;;;;;;;;1.40;1.40;;;;;4.59;79.18;98246.78;5035725;28;8986;-91
2023/12/05 01:50:38;;;;;;;;;0.20;0.20;;;;;4.61;79.26;98244.84;5035437;28;9522;-92
2023/12/05 01:53:06;;;;;;;;;0.80;0.80;;;;;4.62;79.21;98238.59;5035654;28;8998;-92
2023/12/05 01:55:34;;;;;;;;;1.00;0.60;;;;;4.63;79.61;98241.13;5035487;28;8852;-92
2023/12/05 01:58:02;;;;;;;;;0.40;0.40;;;;;4.65;79.29;98230.47;5035612;28;8885;-92
2023/12/05 02:00:29;;;;;;;;;1.00;1.00;;;;;4.65;79.14;98227.81;5037877;28;8861;-91
2023/12/05 02:02:57;;;;;;;;;1.00;1.00;;;;;4.67;79.52;98231.16;5045709;28;8856;-92
2023/12/05 02:05:25;;;;;;;;;2.20;1.00;;;;;4.68;79.02;98232.81;5045121;28;8828;-92
2023/12/05 02:07:53;;;;;;;;;1.00;1.00;;;;;4.71;79.08;98237.84;5035517;28;8955;-92
2023/12/05 02:10:23;;;;;;;;;1.00;1.00;;;;;4.69;79.61;98226.59;5035624;28;8849;-92
2023/12/05 02:12:50;;;;;;;;;1.00;1.00;;;;;4.69;79.63;98229.22;5034300;28;8860;-91
2023/12/05 02:15:19;;;;;;;;;0.40;0.40;;;;;4.67;79.20;98232.00;5035856;28;8918;-92
2023/12/05 02:17:46;;;;;;;;;0.00;0.00;;;;;4.65;79.65;98228.63;5035268;28;8841;-91
2023/12/05 02:20:14;;;;;;;;;0.00;0.00;;;;;4.62;79.48;98226.28;5035215;28;8851;-91
2023/12/05 02:22:41;;;;;;;;;2.20;1.00;;;;;4.62;79.77;98222.78;5035228;28;8854;-92
2023/12/05 02:25:09;;;;;;;;;0.00;0.00;;;;;4.60;79.33;98217.66;5035600;28;8883;-91
2023/12/05 02:27:36;;;;;;;;;4.00;3.00;;;;;4.59;79.31;98210.72;5035985;28;8878;-91
2023/12/05 02:30:05;;;;;;;;;1.40;1.40;;;;;4.59;79.61;98212.50;5038532;28;8991;-91
2023/12/05 02:32:32;;;;;;;;;1.00;1.00;;;;;4.59;79.66;98208.09;5039240;28;8833;-91
2023/12/05 02:35:00;;;;;;;;;0.00;0.00;;;;;4.58;80.15;98208.22;5038761;28;8887;-91
2023/12/05 02:37:28;;;;;;;;;0.80;0.80;;;;;4.57;80.02;98209.19;5038415;28;8860;-91
2023/12/05 02:39:56;;;;;;;;;0.60;0.60;;;;;4.56;79.81;98210.97;5039421;28;8844;-92
2023/12/05 02:42:24;;;;;;;;;0.00;0.00;;;;;4.56;79.67;98210.13;5038103;28;8886;-92
2023/12/05 02:44:51;;;;;;;;;0.60;0.60;;;;;4.55;79.93;98211.06;5037373;28;8852;-92
2023/12/05 02:47:19;;;;;;;;;1.00;0.80;;;;;4.53;80.16;98211.22;5038018;28;8844;-92
2023/12/05 02:49:46;;;;;;;;;1.00;0.80;;;;;4.52;80.34;98209.56;5038779;28;8870;-92
2023/12/05 02:52:14;;;;;;;;;0.80;0.60;;;;;4.51;80.26;98207.03;5039606;28;8925;-92
2023/12/05 02:54:42;;;;;;;;;1.00;1.00;;;;;4.49;79.63;98204.53;5038388;28;8804;-92
2023/12/05 02:57:09;;;;;;;;;0.60;0.60;;;;;4.48;80.04;98202.84;5037866;28;8849;-91
2023/12/05 02:59:37;;;;;;;;;0.80;0.80;;;;;4.48;79.83;98199.41;5038472;28;8864;-91
2023/12/05 03:02:05;;;;;;;;;0.00;0.00;;;;;4.49;79.99;98206.34;5038504;28;8861;-91
2023/12/05 03:04:33;;;;;;;;;2.20;1.40;;;;;4.49;80.05;98203.72;5038053;28;8840;-92
2023/12/05 03:07:01;;;;;;;;;0.40;0.40;;;;;4.49;80.19;98201.06;5038193;28;8853;-92
2023/12/05 03:09:28;;;;;;;;;0.40;0.40;;;;;4.52;80.22;98201.66;5038286;28;8857;-92
2023/12/05 03:11:56;;;;;;;;;0.00;0.00;;;;;4.54;80.53;98201.50;5038165;28;9526;-92
2023/12/05 03:14:24;;;;;;;;;0.80;0.00;;;;;4.57;80.14;98206.53;5038158;28;8906;-92
2023/12/05 03:16:51;;;;;;;;;0.20;0.00;;;;;4.58;80.45;98201.13;5036908;28;8876;-92
2023/12/05 03:19:19;;;;;;;;;0.00;0.00;;;;;4.61;80.44;98205.31;5037733;28;8963;-91
2023/12/05 03:21:48;;;;;;;;;0.20;0.00;;;;;4.63;80.23;98195.50;5037305;28;8844;-91
2023/12/05 03:24:15;;;;;;;;;0.80;0.80;;;;;4.66;79.95;98208.41;5036692;28;8841;-92
2023/12/05 03:26:43;;;;;;;;;1.00;1.00;;;;;4.69;80.20;98208.13;5036698;28;8856;-92
2023/12/05 03:29:11;;;;;;;;;0.80;0.80;;;;;4.66;80.77;98203.13;5035857;28;8876;-91
2023/12/05 03:31:39;;;;;;;;;0.00;0.00;;;;;4.61;80.34;98206.16;5037079;28;8852;-92
2023/12/05 03:34:06;;;;;;;;;0.20;0.20;;;;;4.56;80.29;98197.78;5036582;28;9560;-92
2023/12/05 03:36:34;;;;;;;;;0.20;0.20;;;;;4.52;80.79;98201.66;5036764;28;8959;-92
2023/12/05 03:39:02;;;;;;;;;0.20;0.00;;;;;4.49;81.05;98199.25;5036401;28;8861;-91
2023/12/05 03:41:30;;;;;;;;;1.00;1.00;;;;;4.48;80.98;98204.69;5036718;28;8848;-91
2023/12/05 03:43:57;;;;;;;;;1.80;1.00;;;;;4.47;81.27;98202.97;5037727;28;8836;-92
2023/12/05 03:46:25;;;;;;;;;0.00;0.00;;;;;4.45;81.16;98195.22;5037489;28;9498;-91
2023/12/05 03:48:53;;;;;;;;;0.00;0.00;;;;;4.44;80.95;98196.19;5037744;28;8844;-92
2023/12/05 03:51:21;;;;;;;;;0.00;0.00;;;;;4.43;81.33;98193.66;5037825;28;8910;-92
2023/12/05 03:53:49;;;;;;;;;0.00;0.00;;;;;4.45;81.40;98194.38;5037396;28;8844;-92
2023/12/05 03:56:18;;;;;;;;;0.00;0.00;;;;;4.44;81.28;98183.00;5037353;28;8851;-92
2023/12/05 03:58:45;;;;;;;;;1.00;1.00;;;;;4.44;81.96;98182.16;5037866;28;8867;-91
2023/12/05 04:01:13;;;;;;;;;0.00;0.00;;;;;4.45;81.90;98181.19;5037333;28;8808;-92
2023/12/05 04:03:40;;;;;;;;;0.80;0.80;;;;;4.47;82.15;98184.53;5037105;28;8851;-91
2023/12/05 04:06:08;;;;;;;;;1.00;1.00;;;;;4.46;82.03;98180.22;5036777;28;9542;-92
2023/12/05 04:08:36;;;;;;;;;1.00;1.00;;;;;4.46;82.07;98183.72;5036206;28;8898;-92
2023/12/05 04:11:04;;;;;;;;;1.00;1.00;;;;;4.46;81.97;98177.59;5036464;28;8871;-92
2023/12/05 04:13:31;;;;;;;;;0.00;0.00;;;;;4.48;82.00;98180.97;5036679;28;8855;-92
2023/12/05 04:15:59;;;;;;;;;1.00;1.00;;;;;4.51;82.06;98191.22;5036190;28;8840;-92
2023/12/05 04:18:27;;;;;;;;;0.60;0.60;;;;;4.52;82.04;98190.25;5036301;28;8967;-92
2023/12/05 04:20:54;;;;;;;;;1.00;1.00;;;;;4.56;81.88;98191.69;5036415;28;8828;-92
2023/12/05 04:23:22;;;;;;;;;1.00;1.00;;;;;4.57;82.20;98183.63;5036889;28;8836;-92
2023/12/05 04:25:49;;;;;;;;;1.00;1.00;;;;;4.59;82.02;98180.88;5036511;28;8891;-92
2023/12/05 04:28:17;;;;;;;;;1.00;1.00;;;;;4.62;82.32;98191.16;5036856;28;8898;-92
2023/12/05 04:30:45;;;;;;;;;1.00;1.00;;;;;4.63;81.90;98192.84;5036609;28;8841;-92
2023/12/05 04:33:13;;;;;;;;;3.00;3.00;;;;;4.64;81.97;98184.81;5036627;28;8925;-92
2023/12/05 04:35:41;;;;;;;;;1.00;1.00;;;;;4.64;81.86;98194.53;5036746;28;8828;-92
2023/12/05 04:38:08;;;;;;;;;3.00;1.00;;;;;4.67;81.97;98195.09;5036413;28;8833;-91
2023/12/05 04:40:36;;;;;;;;;0.20;0.00;;;;;4.70;82.02;98188.72;5036868;28;8856;-92
2023/12/05 04:43:04;;;;;;;;;1.00;1.00;;;;;4.72;82.28;98187.63;5036340;28;8841;-92
2023/12/05 04:45:32;;;;;;;;;1.40;1.40;;;;;4.75;81.83;98192.66;5036124;28;8833;-92
2023/12/05 04:48:00;;;;;;;;;1.00;1.00;;;;;4.78;81.84;98191.56;5036185;28;8840;-92
2023/12/05 04:50:27;;;;;;;;;0.80;0.80;;;;;4.81;81.95;98184.25;5035504;28;8852;-92
2023/12/05 04:52:55;;;;;;;;;3.00;3.00;;;;;4.84;82.06;98186.59;5036694;28;8854;-92
2023/12/05 04:55:23;;;;;;;;;0.40;0.40;;;;;4.86;81.57;98182.03;5035952;28;8864;-93
2023/12/05 04:57:50;;;;;;;;;0.00;0.00;;;;;4.89;81.78;98184.44;5035477;28;8828;-92
2023/12/05 05:00:18;;;;;;;;;0.60;0.00;;;;;4.91;82.19;98177.22;5036126;28;8883;-91
2023/12/05 05:02:46;;;;;;;;;1.20;1.20;;;;;4.93;81.54;98180.53;5035291;28;8922;-92
2023/12/05 05:05:14;;;;;;;;;0.60;0.60;;;;;4.95;81.59;98181.25;5035188;28;8860;-92
2023/12/05 05:07:42;;;;;;;;;0.00;0.00;;;;;4.95;81.36;98183.88;5035377;28;8849;-92
2023/12/05 05:10:10;;;;;;;;;2.20;2.20;;;;;4.99;81.53;98184.44;5034762;28;8910;-91
2023/12/05 05:12:38;;;;;;;;;1.00;1.00;;;;;4.99;81.53;98179.19;5035778;28;8837;-92
2023/12/05 05:15:06;;;;;;;;;0.40;0.40;;;;;4.97;81.94;98192.50;5036108;28;8958;-92
2023/12/05 05:17:34;;;;;;;;;1.00;1.00;;;;;4.95;81.92;98183.06;5036071;28;8856;-92
2023/12/05 05:20:04;;;;;;;;;0.20;0.20;;;;;4.91;82.67;98182.47;5036099;28;8844;-92
2023/12/05 05:22:33;;;;;;;;;1.00;1.00;;;;;4.90;82.20;98185.25;5036103;28;8856;-93
2023/12/05 05:25:00;;;;;;;;;0.80;0.20;;;;;4.91;82.33;98186.91;5035991;28;8874;-94
2023/12/05 05:27:28;;;;;;;;;0.60;0.60;;;;;4.91;82.36;98189.53;5036131;28;8982;-93
2023/12/05 05:29:56;;;;;;;;;0.00;0.00;;;;;4.90;82.62;98187.88;5036010;28;8856;-93
2023/12/05 05:32:23;;;;;;;;;1.00;1.00;;;;;4.90;82.71;98195.78;5037153;28;8840;-94
2023/12/05 05:34:51;;;;;;;;;1.00;0.80;;;;;4.90;82.47;98193.16;5035865;28;9529;-93
2023/12/05 05:37:19;;;;;;;;;0.00;0.00;;;;;4.89;82.91;98184.44;5035402;28;8837;-93
2023/12/05 05:39:47;;;;;;;;;0.40;0.40;;;;;4.89;83.09;98196.75;5035567;28;8840;-93
2023/12/05 05:42:15;;;;;;;;;1.00;1.00;;;;;4.89;82.68;98194.13;5036068;28;8860;-92
2023/12/05 05:44:44;;;;;;;;;0.40;0.40;;;;;4.87;82.99;98191.59;5037377;28;8868;-93
2023/12/05 05:47:12;;;;;;;;;1.00;1.00;;;;;4.90;83.47;98193.16;5040212;28;8848;-93
2023/12/05 05:49:39;;;;;;;;;0.00;0.00;;;;;4.91;82.89;98198.31;5038110;28;8914;-92
2023/12/05 05:52:07;;;;;;;;;1.00;1.00;;;;;4.93;83.26;98196.38;5034461;28;8887;-93
2023/12/05 05:54:35;;;;;;;;;0.00;0.00;;;;;4.95;83.25;98196.25;5034896;28;8852;-93
2023/12/05 05:57:03;;;;;;;;;1.20;0.80;;;;;4.99;82.73;98195.00;5034795;28;9620;-92
2023/12/05 05:59:31;;;;;;;;;0.00;0.00;;;;;5.01;83.10;98193.91;5034318;28;8860;-92
2023/12/05 06:01:58;;;;;;;;;1.00;0.20;;;;;5.04;83.04;98204.22;5036496;28;9545;-93
2023/12/05 06:04:26;;;;;;;;;2.60;1.00;;;;;5.09;83.32;98198.53;5038094;28;8883;-94
2023/12/05 06:06:55;;;;;;;;;1.00;1.00;;;;;5.14;83.03;98207.72;5038452;28;9525;-93
2023/12/05 06:09:23;;;;;;;;;2.20;2.20;;;;;5.18;82.86;98200.41;5038210;28;8864;-92
2023/12/05 06:11:51;;;;;;;;;0.60;0.60;;;;;5.20;82.86;98204.56;5038495;28;8845;-92
2023/12/05 06:14:18;;;;;;;;;1.00;1.00;;;;;5.23;83.04;98206.94;5037623;28;8828;-90
2023/12/05 06:16:46;;;;;;;;;0.40;0.40;;;;;5.26;83.06;98203.22;5037431;28;8844;-92
2023/12/05 06:19:14;;;;;;;;;2.60;2.60;;;;;5.28;82.79;98212.66;5038572;28;8852;-92
2023/12/05 06:21:42;;;;;;;;;0.00;0.00;;;;;5.32;83.02;98215.88;5039733;28;8844;-93
2023/12/05 06:24:10;;;;;;;;;0.00;0.00;;;;;5.34;83.15;98212.16;5038319;28;8866;-94
2023/12/05 06:26:38;;;;;;;;;0.00;0.00;;;;;5.38;83.21;98218.00;5038060;28;8852;-94
2023/12/05 06:29:06;;;;;;;;;0.40;0.40;;;;;5.41;82.62;98215.06;5037343;28;8844;-92
2023/12/05 06:31:34;;;;;;;;;0.60;0.60;;;;;5.43;83.08;98218.41;5036899;28;8894;-92
2023/12/05 06:34:01;;;;;;;;;0.00;0.00;;;;;5.44;83.33;98222.72;5037112;28;8856;-93
2023/12/05 06:36:29;;;;;;;;;3.00;3.00;;;;;5.45;83.29;98216.47;5038012;28;8840;-93
2023/12/05 06:38:57;;;;;;;;;1.00;1.00;;;;;5.45;83.26;98225.22;5036506;28;8855;-92
2023/12/05 06:41:24;;;;;;;;;0.40;0.40;;;;;5.46;82.94;98218.16;5039992;28;8886;-92
2023/12/05 06:43:52;;;;;;;;;2.60;1.00;;;;;5.48;83.17;98224.13;5048582;28;8857;-92
2023/12/05 06:46:20;;;;;;;;;2.20;1.00;;;;;5.50;83.41;98232.75;5039022;28;8982;-92
2023/12/05 06:48:51;;;;;;;;;0.00;0.00;;;;;5.52;83.30;98231.66;5036005;28;8890;-93
2023/12/05 06:51:19;;;;;;;;;1.00;1.00;;;;;5.56;83.24;98229.59;5035712;28;9556;-92
2023/12/05 06:53:47;;;;;;;;;1.00;1.00;;;;;5.58;83.31;98239.06;5035909;28;8860;-92
2023/12/05 06:56:17;;;;;;;;;0.40;0.40;;;;;5.61;83.19;98237.97;5036751;28;9528;-92
2023/12/05 06:58:45;;;;;;;;;3.80;2.60;;;;;5.63;83.06;98238.66;5036519;28;8848;-92
2023/12/05 07:01:13;;;;;;;;;0.40;0.40;;;;;5.64;83.29;98245.59;5035998;28;8855;-92
2023/12/05 07:03:40;;;;;;;;;0.00;0.00;;;;;5.65;82.90;98239.34;5038301;28;8858;-93
2023/12/05 07:06:22;;;;;;;;;1.00;1.00;;;;;5.67;83.14;98250.59;5036013;28;8853;-93
2023/12/05 07:08:50;;;;;;;;;0.80;0.80;;;;;5.69;83.08;98249.50;5036847;28;9030;-92
2023/12/05 07:11:18;;;;;;;;;1.00;1.00;;;;;5.71;82.86;98246.75;5036090;28;8848;-92
2023/12/05 07:13:45;;;;;;;;;0.00;0.00;;;;;5.72;83.22;98257.19;5035593;28;8858;-92
2023/12/05 07:16:13;;;;;;;;;1.00;1.00;;;;;5.74;82.86;98257.03;5035230;28;8859;-92
2023/12/05 07:18:41;;;;;;;;;1.00;1.00;;;;;5.74;82.95;98257.03;5036702;28;8848;-92
2023/12/05 07:21:09;;;;;;;;;2.20;2.20;;;;;5.74;82.97;98262.31;5036440;28;8848;-94
2023/12/05 07:23:37;;;;;;;;;0.00;0.00;;;;;5.75;83.06;98248.13;5036673;28;8852;-93
2023/12/05 07:26:06;;;;;;;;;1.00;1.00;;;;;5.75;83.36;98264.81;5036002;28;8852;-93
2023/12/05 07:28:34;;;;;;;;;1.00;1.00;;;;;5.77;83.41;98257.59;5035031;28;8864;-92
2023/12/05 07:31:02;;;;;;;;;1.00;1.00;;;;;5.80;83.01;98259.16;5036440;28;9530;-92
2023/12/05 07:33:29;;;;;;;;;3.20;2.60;;;;;5.83;82.99;98266.81;5036633;28;8852;-93
2023/12/05 07:35:57;;;;;;;;;1.00;0.80;;;;;5.84;82.99;98266.69;5036939;28;8840;-92
2023/12/05 07:38:25;;;;;;;;;1.80;1.40;;;;;5.89;83.40;98263.63;5035998;28;8872;-93
2023/12/05 07:40:53;;;;;;;;;0.20;0.20;;;;;5.91;83.67;98270.47;5036588;28;8841;-93
2023/12/05 07:43:21;;;;;;;;;1.00;0.00;;;;;5.95;83.18;98268.38;5036544;28;8844;-92
2023/12/05 07:45:49;;;;;;;;;1.00;1.00;;;;;5.98;83.69;98270.75;5036358;28;8856;-93
2023/12/05 07:48:19;;;;;;;;;1.00;1.00;;;;;5.99;83.41;98278.53;5035115;28;8869;-93
2023/12/05 07:50:46;;;;;;;;;0.00;0.00;;;;;6.04;83.59;98284.28;5034832;28;8899;-93
2023/12/05 07:53:14;;;;;;;;;4.00;3.00;;;;;6.07;83.67;98280.53;5033865;28;8848;-93
2023/12/05 07:55:42;;;;;;;;;0.40;0.00;;;;;6.10;83.41;98285.53;5032856;28;8861;-94
2023/12/05 07:58:10;;;;;;;;;1.00;1.00;;;;;6.13;83.31;98288.75;5033429;28;8844;-93
2023/12/05 08:00:39;;;;;;;;;1.80;1.80;;;;;6.16;83.44;98291.09;5033087;28;8848;-93
2023/12/05 08:03:12;;;;;;;;;3.00;3.00;;;;;6.21;83.43;98288.09;5032538;28;8991;-92
2023/12/05 08:05:40;;;;;;;;;1.00;1.00;;;;;6.27;83.92;98283.06;5032416;28;9650;-92
2023/12/05 08:08:08;;;;;;;;;1.00;1.00;;;;;6.36;83.25;98289.38;5032674;28;8860;-93
2023/12/05 08:10:36;;;;;;;;;1.00;1.00;;;;;6.45;82.95;98288.53;5033544;28;9510;-93
2023/12/05 08:13:04;;;;;;;;;1.00;1.00;;;;;6.54;83.03;98295.63;5033071;28;8974;-92
2023/12/05 08:15:32;;;;;;;;;3.00;3.00;;;;;6.63;82.71;98287.72;5034391;28;8852;-93
2023/12/05 08:18:00;;;;;;;;;0.25;0.25;;;;;6.76;82.42;98298.84;5035502;28;8856;-94
2023/12/05 08:20:28;;;;;;;;;1.00;1.00;;;;;6.90;82.59;98305.56;5035682;28;8948;-93
2023/12/05 08:22:56;;;;;;;;;1.00;1.00;;;;;7.00;82.20;98306.38;5035723;28;8841;-92
2023/12/05 08:25:24;;;;;;;;;1.50;1.00;;;;;7.08;81.82;98301.22;5034907;28;8833;-92
2023/12/05 08:27:52;;;;;;;;;1.00;1.00;;;;;7.15;81.82;98315.56;5033970;28;8966;-93
2023/12/05 08:30:20;;;;;;;;;1.00;1.00;;;;;7.22;81.88;98316.66;5032593;28;8841;-93
2023/12/05 08:32:48;;;;;;;;;1.00;1.00;;;;;7.29;81.90;98323.06;5032311;28;8864;-94
2023/12/05 08:35:16;;;;;;;;;1.00;1.00;;;;;7.34;81.13;98316.38;5032213;28;8841;-93
2023/12/05 08:37:44;;;;;;;;;2.50;2.00;;;;;7.46;81.43;98322.34;5032486;28;8845;-93
2023/12/05 08:40:12;;;;;;;;;1.00;0.50;;;;;7.58;80.83;98331.81;5033201;28;8856;-93
2023/12/05 08:42:42;;;;;;;;;1.00;0.00;;;;;7.72;80.86;98336.66;5034229;28;8890;-93
2023/12/05 08:45:11;;;;;;;;;1.00;1.00;;;;;7.84;80.69;98334.50;5035213;28;8848;-92
2023/12/05 08:47:38;;;;;;;;;0.00;0.00;;;;;7.93;80.96;98327.50;5032800;28;8852;-93
2023/12/05 08:50:06;;;;;;;;;0.00;0.00;;;;;8.01;80.38;98325.81;5033639;28;8963;-92
2023/12/05 08:52:35;;;;;;;;;0.00;0.00;;;;;8.07;80.36;98327.03;5033146;28;8953;-93
2023/12/05 08:55:04;;;;;;;;;0.00;0.00;;;;;8.13;80.37;98329.09;5033250;28;9369;-92
2023/12/05 08:57:32;;;;;;;;;1.00;1.00;;;;;8.18;80.17;98343.59;5034226;28;8879;-91
2023/12/05 09:00:02;;;;;;;;;0.00;0.00;;;;;8.19;80.07;98337.34;5032717;28;8884;-92
2023/12/05 09:02:30;;;;;;;;;0.75;0.50;;;;;8.22;79.83;98339.69;5032471;28;8986;-93
2023/12/05 09:04:58;;;;;;;;;0.00;0.00;;;;;8.22;80.00;98344.16;5030798;28;8899;-93
2023/12/05 09:07:26;;;;;;;;;0.00;0.00;;;;;8.20;80.14;98340.84;5031029;28;8840;-93
2023/12/05 09:09:54;;;;;;;;;0.00;0.00;;;;;8.18;80.30;98345.38;5031551;28;8853;-93
2023/12/05 09:12:22;;;;;;;;;0.00;0.00;;;;;8.17;80.30;98355.19;5033013;28;8955;-93
2023/12/05 09:14:50;;;;;;;;;0.00;0.00;;;;;8.16;80.45;98350.88;5035103;28;8876;-93
2023/12/05 09:17:18;;;;;;;;;0.00;0.00;;;;;8.13;80.16;98358.28;5035081;28;9522;-93
2023/12/05 09:19:46;;;;;;;;;0.00;0.00;;;;;8.08;80.40;98358.72;5034608;28;8898;-92
2023/12/05 09:22:13;;;;;;;;;0.00;0.00;;;;;8.06;80.47;98355.34;5034485;28;8984;-93
2023/12/05 09:24:41;;;;;;;;;0.75;0.75;;;;;8.04;80.15;98359.13;5033941;28;8852;-91
2023/12/05 09:27:09;;;;;;;;;0.00;0.00;;;;;8.01;80.57;98362.06;5039082;28;8979;-92
2023/12/05 09:29:36;;;;;;;;;0.75;0.00;;;;;7.97;80.81;98369.47;5047586;28;8864;-92
2023/12/05 09:32:17;;;;;;;;;0.00;0.00;;;;;7.91;80.54;98362.09;5042411;28;8849;-91
2023/12/05 09:34:46;;;;;;;;;0.25;0.25;;;;;7.91;80.88;98358.63;5032385;28;8844;-92
2023/12/05 09:37:14;;;;;;;;;0.00;0.00;;;;;7.91;80.97;98355.97;5038348;28;8844;-92
2023/12/05 09:39:42;;;;;;;;;0.00;0.00;;;;;7.97;80.38;98358.88;5038474;28;9015;-92
2023/12/05 09:42:11;;;;;;;;;0.00;0.00;;;;;8.08;80.86;98365.81;5040436;28;8856;-92
2023/12/05 09:44:39;;;;;;;;;0.00;0.00;;;;;8.12;80.24;98360.06;5040229;28;8933;-93
2023/12/05 09:47:06;;;;;;;;;0.00;0.00;;;;;8.12;80.24;98359.22;5040128;28;8863;-92
2023/12/05 09:49:35;;;;;;;;;0.00;0.00;;;;;8.15;80.30;98358.94;5040396;28;8867;-92
2023/12/05 09:52:03;;;;;;;;;0.00;0.00;;;;;8.17;80.38;98356.97;5040047;28;8852;-91
2023/12/05 09:54:31;;;;;;;;;0.00;0.00;;;;;8.16;80.46;98365.91;5040941;28;8848;-92
2023/12/05 09:56:59;;;;;;;;;0.00;0.00;;;;;8.13;80.46;98364.38;5039964;28;8848;-92
2023/12/05 09:59:27;;;;;;;;;0.25;0.00;;;;;8.18;80.05;98372.75;5039698;28;8925;-92
2023/12/05 10:01:56;;;;;;;;;0.00;0.00;;;;;8.32;79.62;98371.47;5039812;28;8898;-92
2023/12/05 10:04:25;;;;;;;;;0.00;0.00;;;;;8.47;79.52;98360.22;5039982;28;8844;-92
2023/12/05 10:06:52;;;;;;;;;0.00;0.00;;;;;8.64;79.02;98367.38;5039188;28;8852;-92
2023/12/05 10:09:23;;;;;;;;;0.00;0.00;;;;;8.82;78.57;98370.06;5039485;28;8861;-92
2023/12/05 10:11:51;;;;;;;;;1.00;1.00;;;;;8.98;78.38;98373.72;5040159;28;9612;-92
2023/12/05 10:14:19;;;;;;;;;0.00;0.00;;;;;9.09;78.49;98375.31;5040194;28;8862;-92
2023/12/05 10:16:46;;;;;;;;;0.00;0.00;;;;;9.18;78.28;98369.94;5040658;28;8856;-92
2023/12/05 10:19:15;;;;;;;;;1.00;0.00;;;;;9.19;78.70;98373.44;5039016;28;8967;-92
2023/12/05 10:21:44;;;;;;;;;0.25;0.00;;;;;9.19;78.24;98373.44;5039236;28;8840;-92
2023/12/05 10:24:15;;;;;;;;;0.00;0.00;;;;;9.28;78.08;98377.84;5038635;28;8832;-91
2023/12/05 10:26:42;;;;;;;;;0.00;0.00;;;;;9.60;77.68;98368.31;5037810;28;8856;-91
2023/12/05 10:29:10;;;;;;;;;0.50;0.00;;;;;10.09;75.93;98362.34;5038965;28;8872;-91
2023/12/05 10:31:38;;;;;;;;;0.00;0.00;;;;;10.44;75.49;98364.00;5038251;28;9514;-92
2023/12/05 10:34:06;;;;;;;;;0.00;0.00;;;;;10.64;75.52;98368.09;5038274;28;8852;-92
2023/12/05 10:36:34;;;;;;;;;0.00;0.00;;;;;10.81;74.91;98369.81;5038698;28;8856;-92
2023/12/05 10:39:03;;;;;;;;;0.00;0.00;;;;;11.16;74.42;98373.06;5038900;28;8886;-92
2023/12/05 10:41:31;;;;;;;;;0.00;0.00;;;;;11.61;73.56;98362.78;5039060;28;8856;-92
2023/12/05 10:43:59;;;;;;;;;1.00;1.00;;;;;12.00;72.82;98369.94;5040139;28;8857;-92
2023/12/05 10:46:27;;;;;;;;;0.00;0.00;;;;;12.19;72.46;98364.22;5038607;28;8853;-92
2023/12/05 10:48:55;;;;;;;;;0.50;0.50;;;;;12.15;71.88;98370.09;5034032;28;8860;-92
2023/12/05 10:51:23;;;;;;;;;0.00;0.00;;;;;11.84;73.08;98377.09;5033954;28;8970;-92
2023/12/05 10:53:51;;;;;;;;;0.00;0.00;;;;;11.59;73.78;98366.66;5034174;28;8861;-91
2023/12/05 10:56:19;;;;;;;;;0.00;0.00;;;;;11.40;74.21;98378.44;5033722;28;8849;-92
2023/12/05 10:58:47;;;;;;;;;0.00;0.00;;;;;11.26;74.42;98379.09;5031529;28;8852;-92
2023/12/05 11:01:17;;;;;;;;;0.00;0.00;;;;;11.23;74.56;98370.59;5032079;28;8853;-92
2023/12/05 11:03:45;;;;;;;;;0.00;0.00;;;;;11.19;74.35;98367.41;5031995;28;8836;-93
2023/12/05 11:06:13;;;;;;;;;0.00;0.00;;;;;11.22;74.11;98363.59;5034222;28;9566;-92
2023/12/05 11:08:41;;;;;;;;;0.00;0.00;;;;;11.18;74.09;98368.41;5034229;28;8836;-91
2023/12/05 11:11:09;;;;;;;;;0.00;0.00;;;;;11.18;73.72;98371.09;5033950;28;8933;-92
2023/12/05 11:13:37;;;;;;;;;0.00;0.00;;;;;11.18;74.54;98373.75;5035064;28;8979;-92
2023/12/05 11:16:05;;;;;;;;;0.00;0.00;;;;;11.12;74.43;98373.53;5035988;28;8840;-92
2023/12/05 11:18:34;;;;;;;;;0.00;0.00;;;;;10.91;74.91;98374.00;5035884;28;8864;-92
2023/12/05 11:21:02;;;;;;;;;0.00;0.00;;;;;10.79;75.44;98375.31;5035727;28;8875;-93
2023/12/05 11:23:30;;;;;;;;;0.25;0.25;;;;;10.85;75.12;98377.31;5035969;28;8840;-92
2023/12/05 11:25:58;;;;;;;;;0.00;0.00;;;;;11.10;73.98;98379.06;5036327;28;8840;-90
2023/12/05 11:28:26;;;;;;;;;0.00;0.00;;;;;11.25;73.66;98371.25;5036225;28;8860;-92
2023/12/05 11:30:54;;;;;;;;;0.00;0.00;;;;;11.63;72.65;98376.81;5035965;28;8979;-91
2023/12/05 11:33:22;;;;;;;;;0.00;0.00;;;;;12.01;71.55;98370.78;5036072;28;8847;-93
2023/12/05 11:35:50;;;;;;;;;0.00;0.00;;;;;12.26;70.90;98369.72;5035908;28;8955;-92
2023/12/05 11:38:17;;;;;;;;;0.00;0.00;;;;;12.39;69.75;98370.00;5036211;28;8872;-93
2023/12/05 11:40:46;;;;;;;;;0.00;0.00;;;;;12.53;69.83;98379.97;5035680;28;8841;-92
2023/12/05 11:43:14;;;;;;;;;0.00;0.00;;;;;12.71;70.35;98377.88;5035479;28;8848;-91
2023/12/05 11:45:42;;;;;;;;;0.00;0.00;;;;;12.59;69.75;98368.59;5035641;28;8856;-92
2023/12/05 11:48:10;;;;;;;;;0.25;0.00;;;;;12.41;70.63;98387.53;5035743;28;8898;-92
2023/12/05 11:50:39;;;;;;;;;0.00;0.00;;;;;12.09;70.50;98386.75;5034394;28;8870;-93
2023/12/05 11:53:08;;;;;;;;;0.00;0.00;;;;;11.70;72.18;98396.47;5035174;28;8864;-92